Potomac, Virginia
Current Conditions -  °F | °C
As of 2:20 PM on Monday 22 Dec 2014 (Local Time) from KDCA Reporting Station
Light Rain Light Rain  
Wind Chill: 31°   Ceiling: 1700
Heat Index: 37°   Visibility: 3mi
Dew Point: 30°   Wind: 9mph
Humidity: 75%   Direction: 20°NNE
Pressure: 30.19"   Gusts: NA
Location:  38.8194°N, 77.0596°W
Report Text: KDCA 221920Z 02008KT 3SM -RA SCT012 BKN017 OVC032 03/M01 A3019 RMK AO2 VIS S 2 1/2 P0000
Loading
Personal Weather Stations






























Interactive Weather Map New forecast layout! Learn more

10-Day Weather Forecast

Advertisements
Track Severe Weather on mobile